createdAt,value
2018-09-11T00:00:09.807Z,13.10
2018-09-11T00:01:09.790Z,11.10
2018-09-11T00:02:09.760Z,15.20
2018-09-11T00:03:09.744Z,15.60
2018-09-11T00:04:09.717Z,12.60
2018-09-11T00:05:09.683Z,10.40
2018-09-11T00:06:09.667Z,11.70
2018-09-11T00:07:09.642Z,14.00
2018-09-11T00:08:09.622Z,13.70
2018-09-11T00:09:10.600Z,15.00
2018-09-11T00:10:56.945Z,16.70
2018-09-11T00:11:56.874Z,13.50
2018-09-11T00:12:56.858Z,11.20
2018-09-11T00:13:56.838Z,16.10
2018-09-11T00:14:56.809Z,10.70
2018-09-11T00:15:56.773Z,12.50
2018-09-11T00:16:57.757Z,14.20
2018-09-11T00:17:56.722Z,11.40
2018-09-11T00:18:56.699Z,11.50
2018-09-11T00:19:58.638Z,11.40
2018-09-11T00:20:56.668Z,11.70
2018-09-11T00:21:56.626Z,15.50
2018-09-11T00:22:56.602Z,12.10
2018-09-11T00:23:56.567Z,14.50
2018-09-11T00:24:56.558Z,14.70
2018-09-11T00:25:56.521Z,13.40
2018-09-11T00:26:56.503Z,12.70
2018-09-11T00:27:56.480Z,12.00
2018-09-11T00:28:56.450Z,13.80
2018-09-11T00:29:56.422Z,16.20
2018-09-11T00:30:56.398Z,12.40
2018-09-11T00:31:56.371Z,13.60
2018-09-11T00:32:56.344Z,11.10
2018-09-11T00:33:56.317Z,15.40
2018-09-11T00:34:56.298Z,16.10
2018-09-11T00:35:56.273Z,13.60
2018-09-11T00:36:56.266Z,12.80
2018-09-11T00:37:56.215Z,11.60
2018-09-11T00:38:56.206Z,12.80
2018-09-11T00:39:56.178Z,12.60
2018-09-11T00:40:56.147Z,10.40
2018-09-11T00:41:56.123Z,15.40
2018-09-11T00:42:56.124Z,9.90
2018-09-11T00:43:56.091Z,15.90
2018-09-11T00:44:56.063Z,11.00
2018-09-11T00:45:56.035Z,12.80
2018-09-11T00:46:55.996Z,11.20
2018-09-11T00:47:55.965Z,16.40
2018-09-11T00:48:55.964Z,12.10
2018-09-11T00:49:55.910Z,10.90
2018-09-11T00:50:55.909Z,12.70
2018-09-11T00:51:55.927Z,11.30
2018-09-11T00:52:55.844Z,12.80
2018-09-11T00:53:55.821Z,16.70
2018-09-11T00:54:55.809Z,16.40
2018-09-11T00:55:55.773Z,13.00
2018-09-11T00:56:55.742Z,15.40
2018-09-11T00:57:55.734Z,14.50
2018-09-11T00:58:55.703Z,10.60
2018-09-11T00:59:55.666Z,17.00
2018-09-11T01:00:55.641Z,14.20
2018-09-11T01:01:55.616Z,15.20
2018-09-11T01:02:55.587Z,14.10
2018-09-11T01:03:55.563Z,16.60
2018-09-11T01:04:55.551Z,15.30
2018-09-11T01:05:55.514Z,14.10
2018-09-11T01:06:55.501Z,16.40
2018-09-11T01:07:55.464Z,15.10
2018-09-11T01:08:56.460Z,14.10
2018-09-11T01:09:55.417Z,13.20
2018-09-11T01:10:56.402Z,19.90
2018-09-11T01:11:55.375Z,15.60
2018-09-11T01:12:55.350Z,15.40
2018-09-11T01:13:55.318Z,16.70
2018-09-11T01:14:55.288Z,13.30
2018-09-11T01:15:55.263Z,16.50
2018-09-11T01:16:55.232Z,13.20
2018-09-11T01:18:02.162Z,15.00
2018-09-11T01:18:55.187Z,18.90
2018-09-11T01:19:55.155Z,15.10
2018-09-11T01:20:56.144Z,14.80
2018-09-11T01:21:55.109Z,13.70
2018-09-11T01:22:55.100Z,17.40
2018-09-11T01:23:55.061Z,16.60
2018-09-11T01:24:56.045Z,18.20
2018-09-11T01:25:55.019Z,16.60
2018-09-11T01:26:55.992Z,16.40
2018-09-11T01:27:54.963Z,13.90
2018-09-11T01:28:54.958Z,17.60
2018-09-11T01:29:54.908Z,16.80
2018-09-11T01:30:54.898Z,17.40
2018-09-11T01:31:54.866Z,17.90
2018-09-11T01:32:54.846Z,15.70
2018-09-11T01:33:54.808Z,17.80
2018-09-11T01:34:54.786Z,17.60
2018-09-11T01:35:54.756Z,16.40
2018-09-11T01:36:54.745Z,15.70
2018-09-11T01:37:54.717Z,13.50
2018-09-11T01:38:55.687Z,15.80
2018-09-11T01:39:54.671Z,18.70
2018-09-11T01:40:54.647Z,15.80
2018-09-11T01:41:54.615Z,16.00
2018-09-11T01:42:54.583Z,16.10
2018-09-11T01:43:54.560Z,18.40
2018-09-11T01:44:54.533Z,17.20
2018-09-11T01:45:54.499Z,19.20
2018-09-11T01:46:54.487Z,16.10
2018-09-11T01:47:54.450Z,16.50
2018-09-11T01:48:54.433Z,14.90
2018-09-11T01:50:00.172Z,15.00
2018-09-11T01:50:54.374Z,17.90
2018-09-11T01:52:32.182Z,19.10
2018-09-11T01:52:54.360Z,17.40
2018-09-11T01:53:54.296Z,17.00
2018-09-11T01:55:00.217Z,22.90
2018-09-11T01:55:54.255Z,21.90
2018-09-11T01:56:56.247Z,16.10
2018-09-11T01:57:54.195Z,13.20
2018-09-11T03:17:58.759Z,12.20
2018-09-11T03:18:55.752Z,10.30
2018-09-11T03:19:57.682Z,12.40
2018-09-11T03:20:55.664Z,12.30
2018-09-11T03:22:25.485Z,9.80
2018-09-11T03:22:55.581Z,12.40
2018-09-11T03:23:55.551Z,8.40
2018-09-11T03:24:57.535Z,12.30
2018-09-11T03:25:55.496Z,9.80
2018-09-11T03:27:22.990Z,9.20
2018-09-11T03:27:55.450Z,8.60
2018-09-11T03:28:59.979Z,10.40
2018-09-11T03:29:55.404Z,8.80
2018-09-11T03:30:57.408Z,9.00
2018-09-11T03:31:55.339Z,9.60
2018-09-11T03:32:55.326Z,10.70
2018-09-11T03:33:55.298Z,13.80
2018-09-11T03:34:57.283Z,13.40
2018-09-11T03:35:55.249Z,9.20
2018-09-11T03:37:00.993Z,8.80
2018-09-11T03:37:55.197Z,12.40
2018-09-11T03:39:07.984Z,11.50
2018-09-11T03:39:55.143Z,8.80
2018-09-11T03:41:06.981Z,11.50
2018-09-11T03:41:55.092Z,11.00
2018-09-11T03:42:55.073Z,8.50
2018-09-11T03:43:55.045Z,8.80
2018-09-11T04:10:50.609Z,8.50
2018-09-11T04:11:28.965Z,7.10
2018-09-11T04:12:41.602Z,8.90
2018-09-11T04:13:28.908Z,8.00
2018-09-11T04:43:59.745Z,9.20
2018-09-11T04:44:59.800Z,7.20
2018-09-11T04:46:10.510Z,10.40
2018-09-11T04:46:59.653Z,5.30
2018-09-11T04:48:25.462Z,7.80
2018-09-11T04:48:59.592Z,7.30
2018-09-11T04:50:31.456Z,5.10
2018-09-11T04:50:59.529Z,6.40
2018-09-11T04:51:59.521Z,5.20
2018-09-11T04:53:10.455Z,5.10
2018-09-11T04:53:59.460Z,6.70
2018-09-11T04:55:13.999Z,5.20
2018-09-11T04:55:59.460Z,5.90
2018-09-11T04:57:01.415Z,5.20
2018-09-11T04:57:59.379Z,7.20
2018-09-11T04:59:30.955Z,7.70
2018-09-11T04:59:59.309Z,7.10
2018-09-11T05:00:59.305Z,6.80
2018-09-11T05:02:32.971Z,5.60
2018-09-11T05:02:59.229Z,4.00
2018-09-11T05:03:59.200Z,7.00
2018-09-11T05:05:28.969Z,7.10
2018-09-11T05:05:59.148Z,8.30
2018-09-11T05:06:59.134Z,7.40
2018-09-11T05:08:04.965Z,7.10
2018-09-11T05:08:59.069Z,6.20
2018-09-11T05:10:11.960Z,8.00
2018-09-11T05:10:59.025Z,4.90
2018-09-11T05:13:19.316Z,10.40
2018-09-11T05:14:19.255Z,8.00
2018-09-11T05:15:25.023Z,11.00
2018-09-11T05:16:19.190Z,6.90
2018-09-11T05:17:30.005Z,7.70
2018-09-11T05:18:19.146Z,5.10
2018-09-11T05:19:24.017Z,10.40
2018-09-11T05:20:19.090Z,5.30
2018-09-11T05:21:30.006Z,10.00
2018-09-11T05:22:19.044Z,5.50
2018-09-11T05:23:41.008Z,7.60
2018-09-11T05:24:18.988Z,7.60
2018-09-11T05:25:39.958Z,6.90
2018-09-11T05:26:18.930Z,6.10
2018-09-11T05:27:23.554Z,9.10
2018-09-11T05:28:18.894Z,6.10
2018-09-11T05:29:20.860Z,6.90
2018-09-11T05:30:18.886Z,8.60
2018-09-11T05:31:25.503Z,6.20
2018-09-11T05:32:18.801Z,7.20
2018-09-11T05:33:18.766Z,7.30
2018-09-11T05:34:18.737Z,6.80
2018-09-11T05:35:23.519Z,4.40
2018-09-11T05:36:18.687Z,5.70
2018-09-11T05:37:19.670Z,7.20
2018-09-11T05:38:18.638Z,7.20
2018-09-11T05:39:24.520Z,8.80
2018-09-11T05:40:18.585Z,7.50
2018-09-11T05:41:19.565Z,7.40
2018-09-11T05:42:18.643Z,6.40
2018-09-11T05:43:20.640Z,5.10
2018-09-11T05:44:18.519Z,5.80
2018-09-11T05:45:20.463Z,5.20
2018-09-11T05:46:18.489Z,9.90
2018-09-11T05:47:24.387Z,5.70
2018-09-11T05:48:18.372Z,6.60
2018-09-11T05:49:23.035Z,6.20
2018-09-11T05:50:18.318Z,9.30
2018-09-11T05:51:33.003Z,9.70
2018-09-11T05:53:21.185Z,9.40
2018-09-11T05:54:36.883Z,6.00
2018-09-11T05:55:21.079Z,5.20
2018-09-11T05:56:44.901Z,5.00
2018-09-11T05:57:21.030Z,7.80
2018-09-11T05:58:36.928Z,8.00
2018-09-11T05:59:21.108Z,7.40
2018-09-11T06:00:21.003Z,6.00
2018-09-11T06:01:20.959Z,4.30
2018-09-11T06:02:49.893Z,7.10
2018-09-11T06:03:20.886Z,6.20
2018-09-11T06:04:21.858Z,7.30
2018-09-11T06:05:20.825Z,7.10
2018-09-11T06:06:46.398Z,6.70
2018-09-11T06:07:20.768Z,7.20
2018-09-11T06:08:31.390Z,7.40
2018-09-11T06:09:20.775Z,6.90
2018-09-11T06:10:26.382Z,6.90
2018-09-11T06:11:20.673Z,7.60
2018-09-11T06:12:25.385Z,6.00
2018-09-11T06:13:20.620Z,6.90
2018-09-11T06:14:25.397Z,4.20
2018-09-11T06:15:20.567Z,5.40
2018-09-11T06:50:30.301Z,7.80
2018-09-11T06:51:42.149Z,5.80
2018-09-11T06:52:30.240Z,6.80
2018-09-11T06:54:07.181Z,7.30
2018-09-11T06:54:30.188Z,7.40
2018-09-11T06:55:30.158Z,6.90
2018-09-11T07:26:38.520Z,13.70
2018-09-11T07:27:38.466Z,6.10
2018-09-11T07:38:29.435Z,8.50
2018-09-11T07:39:36.214Z,4.80
2018-09-11T07:40:29.347Z,4.50
2018-09-11T07:41:31.331Z,6.30
2018-09-11T07:42:29.295Z,6.70
2018-09-11T07:43:29.270Z,4.30
2018-09-11T07:44:29.251Z,3.60
2018-09-11T07:45:55.183Z,3.90
2018-09-11T07:46:29.187Z,6.40
2018-09-11T07:47:39.678Z,4.80
2018-09-11T07:48:29.165Z,3.90
2018-09-11T07:49:29.128Z,4.90
2018-09-11T07:50:29.099Z,3.50
2018-09-11T07:56:11.396Z,4.10
2018-09-11T07:57:09.696Z,3.30
2018-09-11T07:58:09.771Z,3.40
2018-09-11T07:59:09.631Z,2.70
2018-09-11T08:00:09.615Z,4.80
2018-09-11T08:01:09.596Z,2.80
2018-09-11T08:02:09.584Z,4.80
2018-09-11T08:03:09.598Z,2.40
2018-09-11T08:04:09.521Z,2.30
2018-09-11T08:05:09.537Z,2.60
2018-09-11T08:06:09.457Z,4.30
2018-09-11T08:07:09.430Z,2.50
2018-09-11T08:08:09.416Z,4.30
2018-09-11T08:09:09.386Z,3.60
2018-09-11T08:10:09.372Z,3.30
2018-09-11T08:11:09.338Z,3.20
2018-09-11T08:12:09.312Z,2.00
2018-09-11T08:13:09.279Z,2.40
2018-09-11T08:14:09.266Z,2.40
2018-09-11T08:15:09.237Z,3.00
2018-09-11T08:16:09.204Z,3.20
2018-09-11T08:17:09.182Z,3.30
2018-09-11T08:18:09.155Z,1.90
2018-09-11T08:19:09.130Z,2.40
2018-09-11T08:20:09.102Z,3.40
2018-09-11T08:21:09.072Z,3.40
2018-09-11T08:22:09.048Z,7.60
2018-09-11T08:23:09.024Z,2.00
2018-09-11T08:24:09.002Z,2.60
2018-09-11T08:25:08.966Z,4.10
2018-09-11T08:26:08.946Z,2.40
2018-09-11T08:27:08.921Z,4.30
2018-09-11T08:28:08.898Z,2.40
2018-09-11T08:29:08.876Z,2.60
2018-09-11T08:30:08.856Z,3.90
2018-09-11T08:31:08.836Z,2.20
2018-09-11T08:32:08.811Z,2.30
2018-09-11T08:33:08.796Z,1.60
2018-09-11T08:34:08.744Z,5.80
2018-09-11T08:35:08.732Z,2.10
2018-09-11T08:36:08.691Z,4.20
2018-09-11T08:37:08.707Z,1.90
2018-09-11T08:38:08.640Z,3.00
2018-09-11T08:39:08.620Z,3.60
2018-09-11T08:40:08.589Z,3.30
2018-09-11T08:41:08.632Z,2.40
2018-09-11T08:42:08.536Z,4.30
2018-09-11T08:43:08.509Z,4.20
2018-09-11T08:44:08.503Z,5.00
2018-09-11T08:45:08.475Z,2.20
2018-09-11T08:46:08.460Z,2.50
2018-09-11T08:47:08.424Z,3.00
2018-09-11T08:48:08.417Z,3.80
2018-09-11T08:49:08.366Z,2.00
2018-09-11T08:50:08.338Z,2.60
2018-09-11T08:51:08.335Z,1.50
2018-09-11T08:52:08.372Z,3.60
2018-09-11T08:53:08.263Z,2.00
2018-09-11T08:54:08.238Z,1.50
2018-09-11T08:55:08.211Z,4.40
2018-09-11T08:56:08.196Z,1.60
2018-09-11T08:57:08.176Z,2.90
2018-09-11T08:58:08.137Z,2.10
2018-09-11T08:59:08.105Z,2.00
2018-09-11T09:00:08.092Z,2.80
2018-09-11T09:01:08.064Z,2.90
2018-09-11T09:02:08.034Z,2.40
2018-09-11T09:03:07.996Z,2.10
2018-09-11T09:04:07.982Z,2.10
2018-09-11T09:05:07.951Z,4.30
2018-09-11T09:06:07.929Z,3.10
2018-09-11T09:07:07.905Z,4.80
2018-09-11T09:08:07.880Z,2.90
2018-09-11T09:09:07.883Z,3.30
2018-09-11T09:10:07.890Z,2.80
2018-09-11T09:11:07.799Z,2.80
2018-09-11T09:12:07.784Z,1.80
2018-09-11T09:13:07.748Z,3.90
2018-09-11T09:14:07.731Z,3.10
2018-09-11T09:15:07.688Z,2.20
2018-09-11T09:16:07.676Z,1.80
2018-09-11T09:17:07.660Z,1.50
2018-09-11T09:18:07.624Z,2.30
2018-09-11T09:19:07.616Z,2.60
2018-09-11T09:20:13.406Z,3.00
2018-09-11T09:21:07.537Z,2.00
2018-09-11T09:22:07.520Z,4.50
2018-09-11T09:23:07.494Z,2.60
2018-09-11T09:24:07.473Z,4.10
2018-09-11T09:25:07.438Z,2.20
2018-09-11T09:26:07.425Z,2.10
2018-09-11T09:27:07.407Z,3.10
2018-09-11T09:28:07.391Z,2.80
2018-09-11T09:29:07.335Z,2.50
2018-09-11T09:30:08.324Z,1.90
2018-09-11T09:31:07.322Z,1.60
2018-09-11T09:32:07.276Z,5.20
2018-09-11T09:33:07.241Z,2.50
2018-09-11T09:34:07.221Z,1.40
2018-09-11T09:35:07.193Z,3.80
2018-09-11T09:36:07.171Z,5.60
2018-09-11T09:37:07.231Z,2.10
2018-09-11T09:38:07.130Z,1.50
2018-09-11T09:39:07.103Z,3.20
2018-09-11T09:40:07.068Z,2.60
2018-09-11T09:41:07.042Z,1.60
2018-09-11T09:42:07.035Z,2.90
2018-09-11T09:43:06.991Z,4.60
2018-09-11T09:44:07.034Z,4.00
2018-09-11T09:45:06.937Z,2.50
2018-09-11T09:46:06.926Z,4.30
2018-09-11T09:47:06.927Z,3.40
2018-09-11T09:48:06.882Z,2.10
2018-09-11T09:49:06.835Z,4.20
2018-09-11T09:50:06.820Z,2.60
2018-09-11T09:51:06.789Z,2.90
2018-09-11T09:52:07.769Z,1.40
2018-09-11T09:53:06.764Z,3.90
2018-09-11T09:54:06.716Z,2.30
2018-09-11T09:55:06.706Z,2.40
2018-09-11T09:56:06.668Z,3.60
2018-09-11T09:57:06.631Z,3.80
2018-09-11T09:58:06.614Z,1.50
2018-09-11T09:59:06.586Z,5.10
2018-09-11T10:00:06.563Z,5.70
2018-09-11T10:01:06.537Z,1.70
2018-09-11T10:02:06.531Z,2.20
2018-09-11T10:03:06.488Z,2.40
2018-09-11T10:04:06.457Z,2.40
2018-09-11T10:05:06.436Z,4.10
2018-09-11T10:06:07.407Z,2.30
2018-09-11T10:07:06.376Z,2.90
2018-09-11T10:08:06.359Z,3.20
2018-09-11T10:09:06.347Z,2.80
2018-09-11T10:10:06.304Z,2.80
2018-09-11T10:11:06.277Z,2.00
2018-09-11T10:12:07.262Z,2.80
2018-09-11T10:13:06.262Z,2.60
2018-09-11T10:14:06.209Z,2.70
2018-09-11T10:15:06.185Z,3.10
2018-09-11T10:16:06.163Z,1.70
2018-09-11T10:17:06.133Z,2.10
2018-09-11T10:18:07.129Z,1.70
2018-09-11T10:19:06.079Z,1.50
2018-09-11T10:20:06.062Z,2.10
2018-09-11T10:21:06.026Z,2.70
2018-09-11T10:22:06.013Z,2.00
2018-09-11T10:23:06.022Z,3.10
2018-09-11T10:24:06.964Z,1.40
2018-09-11T10:25:05.959Z,2.30
2018-09-11T10:26:05.914Z,7.00
2018-09-11T10:27:05.881Z,3.20
2018-09-11T10:28:05.857Z,1.30
2018-09-11T10:29:05.833Z,5.50
2018-09-11T10:30:05.815Z,3.40
2018-09-11T10:31:05.787Z,1.50
2018-09-11T10:32:05.765Z,4.60
2018-09-11T10:33:05.737Z,2.90
2018-09-11T10:34:05.721Z,5.30
2018-09-11T10:35:05.692Z,3.80
2018-09-11T10:36:05.662Z,1.90
2018-09-11T10:37:05.631Z,2.60
2018-09-11T10:38:06.611Z,4.90
2018-09-11T10:39:05.587Z,2.60
2018-09-11T10:40:05.565Z,3.80
2018-09-11T10:41:05.562Z,2.10
2018-09-11T10:42:05.519Z,2.10
2018-09-11T10:43:05.484Z,2.70
2018-09-11T10:44:05.488Z,2.40
2018-09-11T10:45:05.492Z,4.50
2018-09-11T10:46:05.432Z,2.50
2018-09-11T10:47:05.389Z,5.50
2018-09-11T10:48:05.370Z,3.60
2018-09-11T10:49:05.361Z,2.60
2018-09-11T10:50:05.318Z,3.10
2018-09-11T10:51:05.300Z,2.60
2018-09-11T10:52:05.318Z,2.10
2018-09-11T10:53:05.251Z,1.30
2018-09-11T10:54:05.240Z,2.50
2018-09-11T10:55:05.204Z,5.40
2018-09-11T10:56:05.229Z,1.50
2018-09-11T10:57:05.159Z,3.70
2018-09-11T10:58:05.128Z,4.30
2018-09-11T10:59:05.109Z,3.60
2018-09-11T11:00:05.092Z,2.70
2018-09-11T11:01:05.057Z,1.50
2018-09-11T11:02:05.061Z,2.40
2018-09-11T11:03:04.996Z,1.50
2018-09-11T11:04:04.983Z,3.20
2018-09-11T11:05:04.952Z,2.90
2018-09-11T11:06:04.929Z,1.60
2018-09-11T11:07:04.915Z,4.60
2018-09-11T11:08:04.903Z,3.00
2018-09-11T11:09:04.883Z,2.40
2018-09-11T11:10:04.850Z,1.40
2018-09-11T11:11:04.827Z,2.50
2018-09-11T11:12:04.812Z,4.10
2018-09-11T11:13:04.778Z,2.10
2018-09-11T11:14:04.741Z,1.40
2018-09-11T11:15:04.712Z,2.80
2018-09-11T11:16:04.701Z,4.00
2018-09-11T11:17:04.783Z,1.80
2018-09-11T11:18:04.640Z,1.50
2018-09-11T11:19:04.614Z,2.10
2018-09-11T11:20:04.631Z,2.30
2018-09-11T11:21:04.574Z,1.60
2018-09-11T11:22:04.546Z,2.20
2018-09-11T11:23:04.556Z,2.90
2018-09-11T11:24:04.501Z,4.20
2018-09-11T11:25:04.475Z,3.60
2018-09-11T11:26:05.545Z,2.40
2018-09-11T11:27:04.491Z,2.10
2018-09-11T11:28:04.399Z,2.90
2018-09-11T11:29:04.368Z,3.30
2018-09-11T11:30:04.353Z,5.50
2018-09-11T11:31:04.913Z,1.90
2018-09-11T11:32:04.298Z,2.10
2018-09-11T11:33:04.275Z,2.40
2018-09-11T11:34:04.261Z,2.90
2018-09-11T11:35:04.218Z,3.60
2018-09-11T11:36:04.246Z,2.60
2018-09-11T11:37:04.264Z,2.80
2018-09-11T11:38:04.165Z,1.50
2018-09-11T11:39:04.140Z,2.70
2018-09-11T11:40:04.114Z,3.60
2018-09-11T11:41:04.078Z,2.70
2018-09-11T11:42:04.078Z,1.90
2018-09-11T11:43:04.031Z,2.60
2018-09-11T11:44:03.999Z,2.80
2018-09-11T11:45:03.976Z,2.50
2018-09-11T11:46:03.961Z,3.90
2018-09-11T11:47:03.928Z,2.20
2018-09-11T11:48:03.924Z,2.50
2018-09-11T11:49:03.881Z,3.60
2018-09-11T11:50:03.874Z,3.50
2018-09-11T11:51:03.836Z,2.40
2018-09-11T11:52:03.811Z,1.70
2018-09-11T11:53:03.780Z,2.60
2018-09-11T11:54:03.770Z,2.70
2018-09-11T11:55:03.817Z,1.90
2018-09-11T11:56:03.712Z,3.60
2018-09-11T11:57:03.690Z,1.60
2018-09-11T11:58:03.671Z,5.10
2018-09-11T11:59:03.657Z,4.60
2018-09-11T12:00:03.648Z,3.60
2018-09-11T12:01:03.589Z,2.90
2018-09-11T12:02:03.633Z,2.60
2018-09-11T12:03:03.542Z,1.60
2018-09-11T12:04:03.525Z,4.30
2018-09-11T12:05:03.521Z,2.80
2018-09-11T12:06:04.485Z,1.70
2018-09-11T12:07:03.447Z,5.00
2018-09-11T12:08:03.430Z,2.50
2018-09-11T12:09:03.408Z,2.60
2018-09-11T12:10:03.383Z,2.40
2018-09-11T12:11:03.387Z,7.10
2018-09-11T12:12:03.327Z,1.60
2018-09-11T12:13:03.310Z,3.20
2018-09-11T12:14:03.298Z,2.90
2018-09-11T12:15:03.276Z,4.50
2018-09-11T12:16:03.297Z,3.60
2018-09-11T12:17:03.391Z,3.20
2018-09-11T12:18:03.297Z,3.30
2018-09-11T12:19:03.223Z,3.80
2018-09-11T12:20:04.245Z,3.10
2018-09-11T12:21:03.169Z,5.40
2018-09-11T12:22:03.101Z,6.40
2018-09-11T12:23:03.068Z,1.50
2018-09-11T12:24:03.074Z,2.40
2018-09-11T12:25:03.020Z,4.10
2018-09-11T12:26:03.002Z,2.40
2018-09-11T12:27:02.994Z,3.50
2018-09-11T12:28:03.944Z,3.30
2018-09-11T12:29:02.948Z,2.80
2018-09-11T12:30:02.918Z,1.70
2018-09-11T12:31:02.921Z,2.40
2018-09-11T12:32:04.877Z,2.00
2018-09-11T12:33:02.820Z,1.80
2018-09-11T12:34:04.812Z,3.30
2018-09-11T12:35:02.820Z,2.80
2018-09-11T12:36:04.787Z,5.30
2018-09-11T12:37:02.738Z,1.70
2018-09-11T12:38:02.751Z,4.30
2018-09-11T12:39:02.689Z,3.00
2018-09-11T12:40:04.675Z,3.50
2018-09-11T12:41:02.641Z,2.50
2018-09-11T12:42:07.432Z,4.10
2018-09-11T12:43:02.593Z,4.80
2018-09-11T12:44:19.519Z,5.00
2018-09-11T12:45:02.559Z,2.10
2018-09-11T12:46:02.636Z,3.40
2018-09-11T12:47:02.606Z,3.90
2018-09-11T12:48:15.845Z,2.40
2018-09-11T12:49:02.454Z,2.20
2018-09-11T12:50:04.439Z,4.80
2018-09-11T12:51:02.423Z,5.90
2018-09-11T12:55:07.400Z,4.70
2018-09-11T12:56:13.098Z,2.50
2018-09-11T12:57:07.304Z,6.60
2018-09-11T12:58:18.098Z,1.70
2018-09-11T12:59:07.255Z,2.50
2018-09-11T13:00:09.247Z,2.80
2018-09-11T13:01:07.233Z,1.80
2018-09-11T13:02:07.222Z,3.90
2018-09-11T13:03:07.171Z,1.80
2018-09-11T13:04:09.167Z,5.20
2018-09-11T13:05:07.110Z,3.60
2018-09-11T13:06:18.096Z,5.00
2018-09-11T13:07:07.070Z,5.50
2018-09-11T13:08:12.597Z,4.00
2018-09-11T13:09:07.155Z,3.60
2018-09-11T13:10:11.592Z,5.20
2018-09-11T13:11:06.977Z,3.50
2018-09-11T13:12:07.958Z,5.50
2018-09-11T13:13:06.937Z,4.80
2018-09-11T13:14:11.678Z,7.00
2018-09-11T13:15:06.911Z,6.00
2018-09-11T13:16:08.873Z,5.60
2018-09-11T13:17:06.837Z,4.80
2018-09-11T13:18:07.824Z,3.10
2018-09-11T13:19:06.810Z,5.80
2018-09-11T13:20:07.769Z,2.30
2018-09-11T13:21:06.786Z,4.70
2018-09-11T13:22:12.598Z,4.10
2018-09-11T13:23:06.709Z,3.40
2018-09-11T13:24:11.652Z,3.20
2018-09-11T13:25:06.660Z,3.30
2018-09-11T13:26:07.631Z,3.70
2018-09-11T13:27:06.635Z,6.40
2018-09-11T13:28:07.591Z,1.80
2018-09-11T13:29:06.619Z,2.00
2018-09-11T13:30:07.545Z,4.30
2018-09-11T13:31:06.508Z,4.40
2018-09-11T13:32:07.498Z,4.60
2018-09-11T13:33:06.463Z,5.10
2018-09-11T13:34:06.450Z,2.10
2018-09-11T13:35:06.411Z,3.10
2018-09-11T13:36:06.412Z,3.10
2018-09-11T13:37:06.364Z,2.80
2018-09-11T13:38:06.344Z,2.50
2018-09-11T13:39:06.322Z,2.50
2018-09-11T13:40:07.302Z,3.30
2018-09-11T13:41:06.277Z,4.70
2018-09-11T13:43:03.619Z,5.50
2018-09-11T13:44:09.339Z,2.40
2018-09-11T13:45:03.558Z,3.30
2018-09-11T13:46:03.523Z,4.90
2018-09-11T13:47:03.567Z,5.20
2018-09-11T13:48:08.348Z,6.40
2018-09-11T13:49:03.452Z,3.70
2018-09-11T13:50:03.430Z,3.80
2018-09-11T13:51:03.763Z,4.00
2018-09-11T13:52:04.405Z,5.30
2018-09-11T13:53:03.467Z,2.80
2018-09-11T13:54:03.342Z,2.40
2018-09-11T13:55:03.330Z,3.30
2018-09-11T13:56:05.370Z,3.80
2018-09-11T13:57:03.261Z,3.90
2018-09-11T13:58:03.238Z,4.40
2018-09-11T13:59:03.231Z,3.00
2018-09-11T14:00:03.229Z,4.80
2018-09-11T14:01:03.170Z,3.00
2018-09-11T14:02:03.162Z,2.10
2018-09-11T14:03:03.133Z,2.90
2018-09-11T14:04:03.115Z,4.20
2018-09-11T14:05:03.069Z,3.60
2018-09-11T14:06:03.044Z,4.00
2018-09-11T14:07:03.020Z,3.30
2018-09-11T14:08:04.008Z,3.30
2018-09-11T14:09:02.976Z,2.50
2018-09-11T14:10:02.968Z,3.10
2018-09-11T14:11:02.935Z,4.50
2018-09-11T14:12:02.911Z,6.00
2018-09-11T14:13:02.888Z,6.90
2018-09-11T14:14:02.869Z,1.70
2018-09-11T14:15:02.842Z,5.00
2018-09-11T14:16:02.836Z,2.10
2018-09-11T14:17:02.790Z,3.70
2018-09-11T14:18:02.785Z,2.30
2018-09-11T14:19:02.738Z,2.00
2018-09-11T14:20:02.727Z,2.10
2018-09-11T14:21:02.708Z,2.30
2018-09-11T14:22:02.677Z,4.40
2018-09-11T14:23:02.651Z,3.90
2018-09-11T14:24:02.631Z,2.60
2018-09-11T14:25:02.606Z,2.00
2018-09-11T14:26:02.584Z,1.80
2018-09-11T14:27:02.579Z,2.30
2018-09-11T14:28:02.577Z,2.60
2018-09-11T14:29:02.510Z,1.60
2018-09-11T14:30:02.527Z,3.10
2018-09-11T14:31:02.471Z,3.30
2018-09-11T14:32:02.445Z,2.70
2018-09-11T14:33:02.417Z,3.70
2018-09-11T14:34:02.435Z,4.00
2018-09-11T14:35:02.371Z,3.10
2018-09-11T14:36:02.360Z,2.80
2018-09-11T14:37:02.335Z,5.80
2018-09-11T14:38:02.318Z,2.70
2018-09-11T14:39:02.295Z,2.00
2018-09-11T14:40:02.266Z,3.80
2018-09-11T14:41:02.232Z,3.30
2018-09-11T14:42:02.290Z,2.40
2018-09-11T14:43:02.184Z,3.60
2018-09-11T14:44:02.163Z,2.30
2018-09-11T14:45:02.146Z,7.50
2018-09-11T14:46:02.124Z,2.00
2018-09-11T14:47:02.120Z,2.70
2018-09-11T14:48:02.090Z,2.50
2018-09-11T14:49:02.056Z,1.70
2018-09-11T14:50:02.060Z,3.60
2018-09-11T14:51:02.015Z,2.10
2018-09-11T14:52:04.027Z,2.30
2018-09-11T14:53:01.971Z,2.80
2018-09-11T14:54:01.953Z,5.40
2018-09-11T14:55:01.922Z,4.10
2018-09-11T14:56:01.927Z,5.10
2018-09-11T14:57:01.876Z,2.70
2018-09-11T14:58:01.870Z,2.20
2018-09-11T14:59:01.830Z,5.30
2018-09-11T15:00:01.817Z,3.00
2018-09-11T15:01:01.859Z,2.60
2018-09-11T15:02:01.786Z,4.80
2018-09-11T15:03:01.738Z,2.40
2018-09-11T15:04:01.724Z,3.60
2018-09-11T15:05:01.686Z,2.40
2018-09-11T15:06:01.669Z,2.80
2018-09-11T15:07:01.649Z,3.10
2018-09-11T15:08:01.706Z,2.80
2018-09-11T15:09:01.616Z,4.60
2018-09-11T15:10:01.604Z,2.50
2018-09-11T15:11:01.576Z,4.20
2018-09-11T15:12:01.559Z,3.70
2018-09-11T15:13:01.518Z,3.40
2018-09-11T15:14:01.534Z,3.60
2018-09-11T15:15:01.520Z,4.70
2018-09-11T15:16:08.440Z,3.00
2018-09-11T15:17:01.420Z,3.20
2018-09-11T15:18:03.416Z,3.50
2018-09-11T15:19:01.420Z,2.70
2018-09-11T15:20:01.395Z,6.40
2018-09-11T15:21:01.339Z,4.70
2018-09-11T15:22:01.317Z,2.20
2018-09-11T15:23:01.337Z,1.80
2018-09-11T15:24:01.282Z,4.50
2018-09-11T15:25:01.238Z,3.70
2018-09-11T15:26:01.246Z,6.10
2018-09-11T15:27:01.201Z,2.00
2018-09-11T15:28:01.186Z,4.70
2018-09-11T15:29:01.194Z,3.70
2018-09-11T15:30:01.173Z,3.60
2018-09-11T15:31:01.107Z,4.00
2018-09-11T15:32:01.124Z,5.90
2018-09-11T15:33:01.053Z,4.50
2018-09-11T15:34:01.055Z,1.80
2018-09-11T15:35:01.022Z,4.70
2018-09-11T15:36:01.072Z,5.10
2018-09-11T15:37:00.992Z,3.10
2018-09-11T15:38:00.955Z,5.40
2018-09-11T15:39:00.953Z,3.60
2018-09-11T15:40:00.926Z,2.30
2018-09-11T15:41:00.882Z,2.50
2018-09-11T15:42:00.871Z,3.50
2018-09-11T15:43:00.839Z,6.10
2018-09-11T15:44:46.755Z,3.80
2018-09-11T15:45:46.711Z,4.70
2018-09-11T15:46:46.718Z,2.70
2018-09-11T15:47:46.669Z,4.10
2018-09-11T15:48:46.637Z,6.20
2018-09-11T15:49:46.619Z,3.80
2018-09-11T15:50:46.593Z,2.60
2018-09-11T15:51:46.576Z,2.90
2018-09-11T15:52:46.553Z,2.60
2018-09-11T15:53:47.534Z,3.40
2018-09-11T15:54:46.507Z,4.90
2018-09-11T15:55:46.493Z,3.40
2018-09-11T15:56:46.463Z,2.70
2018-09-11T15:57:46.457Z,3.00
2018-09-11T15:58:46.433Z,3.80
2018-09-11T15:59:46.398Z,2.90
2018-09-11T16:00:46.374Z,3.80
2018-09-11T16:01:46.371Z,2.60
2018-09-11T16:02:46.341Z,3.00
2018-09-11T16:03:47.319Z,4.40
2018-09-11T16:04:46.311Z,4.20
2018-09-11T16:08:50.090Z,42.90
2018-09-11T16:09:54.765Z,3.10
2018-09-11T16:10:50.033Z,3.30
2018-09-11T16:11:56.786Z,3.10
2018-09-11T16:12:49.989Z,1.80
2018-09-11T16:13:55.768Z,3.40
2018-09-11T16:14:49.947Z,2.60
2018-09-11T16:15:51.917Z,5.30
2018-09-11T16:16:49.886Z,3.10
2018-09-11T16:17:50.886Z,4.30
2018-09-11T16:18:49.839Z,3.40
2018-09-11T16:19:54.768Z,2.80
2018-09-11T16:20:49.808Z,2.40
2018-09-11T16:21:51.809Z,2.10
2018-09-11T16:22:49.766Z,4.50
2018-09-11T16:23:50.744Z,3.50
2018-09-11T16:24:49.716Z,2.70
2018-09-11T16:25:55.273Z,2.00
2018-09-11T16:26:49.664Z,2.20
2018-09-11T16:27:49.655Z,1.90
2018-09-11T16:28:49.635Z,3.60
2018-09-11T16:29:50.723Z,2.10
2018-09-11T16:30:49.589Z,4.20
2018-09-11T16:31:50.566Z,1.90
2018-09-11T16:32:49.577Z,3.40
2018-09-11T16:33:50.523Z,5.30
2018-09-11T16:35:04.698Z,5.70
2018-09-11T16:36:05.669Z,3.80
2018-09-11T16:37:04.651Z,2.20
2018-09-11T16:38:06.611Z,3.50
2018-09-11T16:39:04.595Z,2.60
2018-09-11T16:40:05.597Z,3.00
2018-09-11T16:41:04.572Z,4.10
2018-09-11T16:42:11.446Z,4.90
2018-09-11T16:43:04.547Z,2.60
2018-09-11T16:44:04.508Z,3.70
2018-09-11T16:45:04.457Z,4.00
2018-09-11T16:46:06.460Z,4.00
2018-09-11T16:47:04.453Z,4.10
2018-09-11T16:48:05.450Z,4.30
2018-09-11T16:49:04.375Z,4.10
2018-09-11T16:50:04.360Z,4.50
2018-09-11T16:51:04.334Z,6.50
2018-09-11T16:57:45.383Z,13.60
2018-09-11T16:58:46.342Z,2.00
2018-09-11T16:59:45.331Z,4.80
2018-09-11T17:00:50.099Z,5.20
2018-09-11T17:01:45.278Z,3.80
2018-09-11T17:02:46.255Z,4.20